Time;durP1;ratioP1;P1;durP2;ratioP2;P2;SDS_P1;SDS_P2;PMS_P1;PMS_P2;Temp;Humidity;BMP_temperature;BMP_pressure;BME280_temperature;BME280_humidity;BME280_pressure;Samples;Min_cycle;Max_cycle;Signal;HPM_P1;HPM_P2
2022/12/12 00:01:22;;;;;;;27.67;10.50;;;0.30;99.90;;;;;;5049276;28;20087;-87
2022/12/12 00:03:48;;;;;;;23.13;10.25;;;0.30;99.90;;;;;;5032392;28;20038;-86
2022/12/12 00:06:14;;;;;;;25.83;10.05;;;0.30;99.90;;;;;;5032147;28;20454;-86
2022/12/12 00:08:40;;;;;;;23.65;10.55;;;0.40;99.90;;;;;;5048752;28;20120;-86
2022/12/12 00:11:06;;;;;;;23.60;10.38;;;0.30;99.90;;;;;;4997031;28;20048;-86
2022/12/12 00:13:33;;;;;;;27.00;11.10;;;0.60;99.90;;;;;;5036531;28;20033;-87
2022/12/12 00:15:58;;;;;;;22.92;10.80;;;0.40;99.90;;;;;;5016157;28;20182;-87
2022/12/12 00:18:24;;;;;;;24.15;9.55;;;1.60;99.90;;;;;;5032252;28;20093;-87
2022/12/12 00:20:52;;;;;;;26.83;10.38;;;0.40;99.90;;;;;;5031918;28;20045;-87
2022/12/12 00:23:17;;;;;;;26.73;11.48;;;0.40;99.90;;;;;;5031605;28;20052;-86
2022/12/12 00:25:43;;;;;;;29.58;11.00;;;0.40;99.90;;;;;;5029637;28;20033;-87
2022/12/12 00:28:09;;;;;;;26.50;10.98;;;0.40;99.90;;;;;;5032082;28;20049;-87
2022/12/12 00:30:34;;;;;;;25.92;10.02;;;0.60;99.90;;;;;;5031651;28;20507;-87
2022/12/12 00:33:00;;;;;;;22.60;9.30;;;1.30;99.90;;;;;;5048597;28;20041;-87
2022/12/12 00:35:26;;;;;;;21.50;9.33;;;0.40;99.90;;;;;;5015384;28;20520;-87
2022/12/12 00:37:51;;;;;;;25.57;11.23;;;1.00;99.90;;;;;;5015274;28;20295;-87
2022/12/12 00:40:17;;;;;;;25.30;10.37;;;1.90;99.90;;;;;;5014908;28;20280;-87
2022/12/12 00:42:43;;;;;;;22.70;9.57;;;0.40;99.90;;;;;;5029460;28;21494;-87
2022/12/12 00:45:10;;;;;;;21.77;9.20;;;0.40;99.90;;;;;;5031958;28;20029;-86
2022/12/12 00:47:36;;;;;;;25.17;11.10;;;0.40;99.90;;;;;;5031712;28;20038;-87
2022/12/12 00:50:02;;;;;;;24.52;10.27;;;0.40;99.90;;;;;;5031890;28;20117;-86
2022/12/12 00:52:28;;;;;;;24.48;10.23;;;0.40;99.90;;;;;;5030529;28;20044;-87
2022/12/12 00:54:53;;;;;;;23.90;9.95;;;0.40;99.90;;;;;;5031600;28;20034;-87
2022/12/12 00:57:19;;;;;;;24.43;10.43;;;0.40;99.90;;;;;;5014656;28;20037;-87
2022/12/12 00:59:44;;;;;;;23.73;9.70;;;0.40;99.90;;;;;;5031479;28;20280;-86
2022/12/12 01:02:11;;;;;;;22.97;10.70;;;0.40;99.90;;;;;;5031806;28;20617;-86
2022/12/12 01:04:37;;;;;;;24.13;10.32;;;0.50;99.90;;;;;;5031619;28;20504;-87
2022/12/12 01:07:02;;;;;;;25.50;9.73;;;1.40;99.90;;;;;;5047848;28;20044;-86
2022/12/12 01:09:28;;;;;;;23.75;9.93;;;0.50;99.90;;;;;;5015058;28;20048;-86
2022/12/12 01:11:54;;;;;;;23.17;9.88;;;0.50;99.90;;;;;;5031360;28;20123;-87
2022/12/12 01:14:19;;;;;;;23.80;9.70;;;1.60;99.90;;;;;;5031505;28;20127;-86
2022/12/12 01:16:45;;;;;;;21.63;9.30;;;0.50;99.90;;;;;;5031200;28;20296;-86
2022/12/12 01:19:11;;;;;;;24.10;10.10;;;0.50;99.90;;;;;;5031541;28;20044;-86
2022/12/12 01:21:37;;;;;;;24.80;10.25;;;0.50;99.90;;;;;;5030589;28;20037;-87
2022/12/12 01:24:03;;;;;;;23.80;9.83;;;0.50;99.90;;;;;;5014524;28;20458;-85
2022/12/12 01:26:29;;;;;;;24.02;9.32;;;0.40;99.90;;;;;;5029766;28;20283;-86
2022/12/12 01:28:55;;;;;;;23.58;10.45;;;0.40;99.90;;;;;;5030388;28;20042;-86
2022/12/12 01:31:21;;;;;;;22.90;9.57;;;0.50;99.90;;;;;;5029521;28;20056;-85
2022/12/12 01:33:47;;;;;;;24.25;9.65;;;0.50;99.90;;;;;;5030189;28;20409;-86
2022/12/12 01:36:15;;;;;;;25.33;9.52;;;0.50;99.90;;;;;;5013291;28;20041;-86
2022/12/12 01:38:52;;;;;;;22.20;9.77;;;0.40;99.90;;;;;;5013148;28;20037;-86
2022/12/12 01:41:20;;;;;;;23.63;9.82;;;0.50;99.90;;;;;;5028179;28;20086;-86
2022/12/12 01:43:46;;;;;;;24.52;10.18;;;0.50;99.90;;;;;;5012917;28;20033;-86
2022/12/12 01:46:21;;;;;;;25.25;9.70;;;0.50;99.90;;;;;;5013453;28;20041;-86
2022/12/12 01:48:55;;;;;;;24.17;9.63;;;0.40;99.90;;;;;;5025838;28;20049;-86
2022/12/12 01:51:23;;;;;;;25.00;9.82;;;0.40;99.90;;;;;;5029689;28;20041;-86
2022/12/12 01:53:53;;;;;;;21.08;9.68;;;0.40;99.90;;;;;;5029952;28;20040;-86
2022/12/12 01:56:19;;;;;;;25.23;9.70;;;0.40;99.90;;;;;;5030243;28;20045;-84
2022/12/12 01:58:50;;;;;;;24.38;10.52;;;0.40;99.90;;;;;;5013985;28;20370;-85
2022/12/12 02:01:17;;;;;;;21.15;9.38;;;0.40;99.90;;;;;;5028734;28;20033;-85
2022/12/12 02:03:44;;;;;;;23.67;9.50;;;1.90;99.90;;;;;;5030610;28;20041;-86
2022/12/12 02:06:14;;;;;;;23.83;9.48;;;0.50;99.90;;;;;;5030380;28;20045;-86
2022/12/12 02:08:42;;;;;;;21.42;9.68;;;1.70;99.90;;;;;;5027095;28;20064;-87
2022/12/12 02:11:07;;;;;;;20.95;9.98;;;2.20;99.90;;;;;;5030974;28;20048;-87
2022/12/12 02:13:34;;;;;;;22.05;9.25;;;0.70;99.90;;;;;;5030411;28;20045;-87
2022/12/12 02:16:14;;;;;;;23.23;8.75;;;0.40;99.90;;;;;;5014099;28;20145;-87
2022/12/12 02:19:00;;;;;;;24.15;9.68;;;0.40;99.90;;;;;;5028398;28;20374;-87
2022/12/12 02:21:41;;;;;;;27.10;11.57;;;0.70;99.90;;;;;;5029632;28;20497;-86
2022/12/12 02:24:25;;;;;;;21.85;8.82;;;0.40;99.90;;;;;;5030624;28;20139;-87
2022/12/12 02:27:15;;;;;;;25.15;9.93;;;0.40;99.90;;;;;;5030121;28;20120;-87
2022/12/12 02:30:00;;;;;;;23.13;9.75;;;0.40;99.90;;;;;;5030007;28;20045;-87
2022/12/12 02:32:50;;;;;;;21.80;9.48;;;0.40;99.90;;;;;;5028447;28;20141;-87
2022/12/12 02:35:19;;;;;;;23.30;9.43;;;0.40;99.90;;;;;;5026482;28;20045;-87
2022/12/12 02:38:17;;;;;;;23.10;9.50;;;0.40;99.90;;;;;;5046629;28;20033;-87
2022/12/12 02:40:58;;;;;;;24.98;9.68;;;0.40;99.90;;;;;;4990892;28;20116;-87
2022/12/12 02:43:42;;;;;;;21.50;9.85;;;1.30;99.90;;;;;;5028621;28;20041;-87
2022/12/12 02:46:19;;;;;;;24.45;10.07;;;0.50;99.90;;;;;;5028038;28;20096;-87
2022/12/12 02:48:58;;;;;;;22.10;9.00;;;0.40;99.90;;;;;;5012468;28;20056;-88
2022/12/12 02:51:26;;;;;;;21.38;9.45;;;0.40;99.90;;;;;;5030120;28;20060;-87
2022/12/12 02:53:52;;;;;;;26.40;9.82;;;1.10;99.90;;;;;;5013613;28;20022;-88
2022/12/12 02:56:43;;;;;;;23.10;9.18;;;1.60;99.90;;;;;;5013677;28;20044;-88
2022/12/12 02:59:11;;;;;;;21.75;9.85;;;0.50;99.90;;;;;;5027750;28;20037;-87
2022/12/12 03:02:14;;;;;;;21.23;9.57;;;0.40;99.90;;;;;;5029564;28;20069;-87
2022/12/12 03:08:19;;;;;;;23.23;9.48;;;0.50;99.90;;;;;;5046084;28;20497;-87
2022/12/12 03:10:56;;;;;;;21.17;9.25;;;0.40;99.90;;;;;;5044067;28;20045;-86
2022/12/12 03:13:37;;;;;;;24.50;9.00;;;0.40;99.90;;;;;;5030200;28;20428;-87
2022/12/12 03:16:20;;;;;;;20.10;9.05;;;0.40;99.90;;;;;;5030053;28;20079;-88
2022/12/12 03:18:52;;;;;;;20.98;8.88;;;0.40;99.90;;;;;;5029508;28;20049;-88
2022/12/12 03:21:29;;;;;;;21.27;8.65;;;0.40;99.90;;;;;;5031182;28;20048;-87
2022/12/12 03:24:02;;;;;;;22.80;9.80;;;0.40;99.90;;;;;;5033245;28;20108;-86
2022/12/12 03:26:50;;;;;;;22.40;9.27;;;1.10;99.90;;;;;;5017251;28;20041;-86
2022/12/12 03:29:25;;;;;;;18.23;8.00;;;0.50;99.90;;;;;;5017429;28;20037;-87
2022/12/12 03:31:59;;;;;;;19.13;8.60;;;1.30;99.90;;;;;;5016330;28;20135;-87
2022/12/12 03:34:38;;;;;;;22.60;9.82;;;0.60;99.90;;;;;;5031811;28;20094;-87
2022/12/12 03:37:12;;;;;;;19.48;8.80;;;0.40;99.90;;;;;;5031684;28;20521;-86
2022/12/12 03:39:44;;;;;;;21.10;9.65;;;1.10;99.90;;;;;;5032496;28;20037;-86
2022/12/12 03:42:19;;;;;;;19.88;8.52;;;0.40;99.90;;;;;;5032778;28;20072;-86
2022/12/12 03:44:50;;;;;;;22.38;8.80;;;0.40;99.90;;;;;;5018141;28;20505;-86
2022/12/12 03:47:24;;;;;;;22.00;9.38;;;0.70;99.90;;;;;;5032955;28;20037;-86
2022/12/12 03:50:08;;;;;;;21.38;10.18;;;1.50;99.90;;;;;;5016069;28;20045;-86
2022/12/12 03:52:45;;;;;;;20.95;9.55;;;0.40;99.90;;;;;;5016476;28;20067;-86
2022/12/12 03:55:16;;;;;;;;;;;0.60;99.90;;;;;;5031406;28;20041;-87
2022/12/12 03:58:12;;;;;;;21.92;9.07;;;0.40;99.90;;;;;;5034271;28;19921;-87
2022/12/12 04:00:41;;;;;;;24.88;10.07;;;0.40;99.90;;;;;;5028924;28;20045;-87
2022/12/12 04:03:24;;;;;;;24.23;9.35;;;0.40;99.90;;;;;;5032849;28;20038;-87
2022/12/12 04:06:31;;;;;;;19.83;8.13;;;0.40;99.90;;;;;;5032548;28;20046;-87
2022/12/12 04:15:13;;;;;;;18.65;8.73;;;0.40;99.90;;;;;;5047253;28;20107;-86
2022/12/12 04:17:55;;;;;;;22.58;9.85;;;0.40;99.90;;;;;;5031731;28;20071;-86
2022/12/12 04:23:46;;;;;;;20.83;9.15;;;0.40;99.90;;;;;;5030076;28;20037;-86
2022/12/12 04:26:39;;;;;;;19.35;8.15;;;0.20;99.90;;;;;;5030298;28;20044;-86
2022/12/12 04:29:28;;;;;;;21.23;8.93;;;0.40;99.90;;;;;;5031330;28;20091;-86
2022/12/12 04:32:13;;;;;;;21.13;9.20;;;0.40;99.90;;;;;;5027551;28;20061;-87
2022/12/12 04:35:03;;;;;;;18.95;8.38;;;0.40;99.90;;;;;;5031585;28;20052;-87
2022/12/12 04:37:36;;;;;;;21.95;9.02;;;0.40;99.90;;;;;;5029619;28;20501;-86
2022/12/12 04:40:06;;;;;;;21.35;9.15;;;0.40;99.90;;;;;;5032039;28;20037;-86
2022/12/12 04:42:39;;;;;;;27.20;9.27;;;0.40;99.90;;;;;;5032008;28;20033;-86
2022/12/12 04:45:10;;;;;;;21.38;9.20;;;0.40;99.90;;;;;;5031761;28;20120;-86
2022/12/12 04:47:37;;;;;;;19.58;8.48;;;0.40;99.90;;;;;;5033027;28;20524;-87
2022/12/12 04:50:06;;;;;;;20.02;8.52;;;0.40;99.90;;;;;;5015242;28;20041;-86
2022/12/12 04:52:33;;;;;;;19.67;8.60;;;0.40;99.90;;;;;;5032297;28;20052;-87
2022/12/12 04:55:05;;;;;;;18.85;8.48;;;0.40;99.90;;;;;;5031803;28;20038;-87
2022/12/12 04:57:38;;;;;;;20.55;8.40;;;0.50;99.90;;;;;;5028563;28;20113;-87
2022/12/12 05:00:06;;;;;;;20.83;9.05;;;0.40;99.90;;;;;;5032679;28;20033;-87
2022/12/12 05:02:42;;;;;;;19.42;8.88;;;0.40;99.90;;;;;;5032231;28;20037;-86
2022/12/12 05:05:41;;;;;;;19.70;8.40;;;0.40;99.90;;;;;;5032248;28;20367;-86
2022/12/12 05:08:24;;;;;;;20.13;9.10;;;0.40;99.90;;;;;;5015074;28;20048;-88
2022/12/12 05:10:53;;;;;;;21.35;9.55;;;0.40;99.90;;;;;;5047989;28;20051;-88
2022/12/12 05:13:22;;;;;;;21.42;8.43;;;0.70;99.90;;;;;;5029811;28;20041;-87
2022/12/12 05:15:51;;;;;;;22.33;8.85;;;0.40;99.90;;;;;;5030823;28;20120;-87
2022/12/12 05:18:18;;;;;;;18.50;8.10;;;0.40;99.90;;;;;;5031059;28;20037;-86
2022/12/12 05:20:45;;;;;;;19.95;9.43;;;0.40;99.90;;;;;;5031162;28;20199;-86
2022/12/12 05:23:10;;;;;;;20.40;8.75;;;0.40;99.90;;;;;;5031947;28;20038;-86
2022/12/12 05:25:36;;;;;;;21.42;8.35;;;0.40;99.90;;;;;;5015484;28;20124;-86
2022/12/12 05:28:02;;;;;;;19.25;8.88;;;0.40;99.90;;;;;;5030738;28;20563;-87
2022/12/12 05:30:28;;;;;;;20.30;9.00;;;0.40;99.90;;;;;;5014981;28;20136;-87
2022/12/12 05:32:54;;;;;;;20.13;8.50;;;0.40;99.90;;;;;;5031764;28;20041;-87
2022/12/12 05:35:20;;;;;;;20.27;9.07;;;0.90;99.90;;;;;;5032036;28;20048;-87
2022/12/12 05:37:46;;;;;;;20.20;9.30;;;0.40;99.90;;;;;;5014892;28;20515;-88
2022/12/12 05:40:13;;;;;;;19.63;8.70;;;0.40;99.90;;;;;;5032033;28;20041;-88
2022/12/12 05:42:39;;;;;;;18.95;8.75;;;0.40;99.90;;;;;;5016109;28;21286;-87
2022/12/12 05:45:07;;;;;;;18.98;8.40;;;0.40;99.90;;;;;;5031355;28;20393;-87
2022/12/12 05:47:33;;;;;;;22.55;9.32;;;0.40;99.90;;;;;;5031592;28;20037;-88
2022/12/12 05:49:59;;;;;;;17.60;7.72;;;0.80;99.90;;;;;;5032164;28;20037;-89
2022/12/12 05:52:25;;;;;;;21.25;8.75;;;0.40;99.90;;;;;;4999216;28;20129;-88
2022/12/12 05:54:50;;;;;;;20.48;8.88;;;0.30;99.90;;;;;;5031395;28;20550;-88
2022/12/12 05:57:17;;;;;;;20.55;8.63;;;0.30;99.90;;;;;;5031402;28;20044;-88
2022/12/12 05:59:44;;;;;;;19.10;8.75;;;0.80;99.90;;;;;;5030568;28;20041;-84
2022/12/12 06:02:10;;;;;;;20.40;8.45;;;0.30;99.90;;;;;;5029208;28;20030;-83
2022/12/12 06:04:35;;;;;;;19.95;8.70;;;0.30;99.90;;;;;;5029544;28;20045;-82
2022/12/12 06:07:01;;;;;;;23.85;9.63;;;0.30;99.90;;;;;;5029240;28;20048;-81
2022/12/12 06:09:27;;;;;;;19.92;9.18;;;0.30;99.90;;;;;;5013483;28;20037;-82
2022/12/12 06:11:53;;;;;;;19.10;8.88;;;0.30;99.90;;;;;;5029157;28;20049;-81
2022/12/12 06:14:18;;;;;;;18.27;8.90;;;0.30;99.90;;;;;;5013278;28;20077;-81
2022/12/12 06:16:44;;;;;;;19.67;9.17;;;0.30;99.90;;;;;;5029547;28;20444;-81
2022/12/12 06:19:10;;;;;;;17.87;8.67;;;0.30;99.90;;;;;;5029061;28;20630;-80
2022/12/12 06:21:36;;;;;;;20.00;8.77;;;0.30;99.90;;;;;;5029281;28;20128;-80
2022/12/12 06:24:04;;;;;;;19.38;8.95;;;0.30;99.90;;;;;;5028963;28;20485;-80
2022/12/12 06:26:30;;;;;;;19.58;8.63;;;0.30;99.90;;;;;;5029496;28;20034;-80
2022/12/12 06:28:56;;;;;;;22.63;9.35;;;1.60;99.90;;;;;;5029327;28;20047;-80
2022/12/12 06:31:21;;;;;;;21.33;9.50;;;0.30;99.90;;;;;;5029179;28;20053;-80
2022/12/12 06:33:47;;;;;;;21.05;8.75;;;0.30;99.90;;;;;;5029446;28;20119;-80
2022/12/12 06:36:22;;;;;;;22.77;9.05;;;0.80;99.90;;;;;;5029276;28;20489;-81
2022/12/12 06:38:59;;;;;;;21.83;8.73;;;0.30;99.90;;;;;;5029025;28;20056;-80
2022/12/12 06:41:27;;;;;;;22.65;9.63;;;0.30;99.90;;;;;;5044403;28;20033;-80
2022/12/12 06:43:53;;;;;;;22.35;9.25;;;0.30;99.90;;;;;;5012277;28;20060;-81
2022/12/12 06:46:22;;;;;;;24.30;9.25;;;0.30;99.90;;;;;;5029726;28;20038;-81
2022/12/12 06:48:49;;;;;;;23.10;9.27;;;0.30;99.90;;;;;;5029601;28;20400;-81
2022/12/12 06:51:19;;;;;;;20.92;8.55;;;0.30;99.90;;;;;;5028840;28;20037;-81
2022/12/12 06:53:45;;;;;;;21.55;9.13;;;0.20;99.90;;;;;;5029234;28;20038;-81
2022/12/12 06:56:20;;;;;;;22.13;9.30;;;0.30;99.90;;;;;;5031793;28;20041;-81
2022/12/12 06:58:46;;;;;;;23.33;9.50;;;0.20;99.90;;;;;;5033112;28;20029;-80
2022/12/12 07:01:13;;;;;;;;;;;0.30;99.90;;;;;;5033092;28;20045;-79
2022/12/12 07:03:41;;;;;;;20.67;9.15;;;0.20;99.90;;;;;;5033231;28;19917;-80
2022/12/12 07:06:07;;;;;;;26.00;10.95;;;0.30;99.90;;;;;;5030500;28;20037;-80
2022/12/12 07:08:34;;;;;;;23.55;10.68;;;0.20;99.90;;;;;;5032863;28;20040;-80
2022/12/12 07:11:05;;;;;;;24.02;11.38;;;0.40;99.90;;;;;;5032957;28;20045;-81
2022/12/12 07:13:31;;;;;;;28.15;13.10;;;0.20;99.90;;;;;;5033231;28;20473;-81
2022/12/12 07:15:56;;;;;;;27.73;13.98;;;0.20;99.90;;;;;;5032611;28;20156;-81
2022/12/12 07:18:22;;;;;;;28.57;14.70;;;0.60;99.90;;;;;;5032791;28;20044;-81
2022/12/12 07:20:48;;;;;;;26.85;11.02;;;0.20;99.90;;;;;;5049598;28;20683;-81
2022/12/12 07:23:14;;;;;;;22.00;10.03;;;0.20;99.90;;;;;;5048996;28;20107;-81
2022/12/12 07:25:42;;;;;;;22.85;9.75;;;0.30;99.90;;;;;;5050195;28;20839;-81
2022/12/12 07:28:09;;;;;;;23.25;10.02;;;0.30;99.90;;;;;;5032408;28;20482;-81
2022/12/12 07:30:45;;;;;;;23.02;10.70;;;0.30;99.90;;;;;;5049177;28;20064;-81
2022/12/12 07:33:13;;;;;;;22.67;10.30;;;0.30;99.90;;;;;;5032456;28;20050;-81
2022/12/12 07:35:39;;;;;;;25.70;10.90;;;0.30;99.90;;;;;;5032615;28;20801;-81
2022/12/12 07:38:05;;;;;;;22.38;9.93;;;0.40;99.90;;;;;;5015672;28;20143;-81
2022/12/12 07:40:32;;;;;;;19.17;8.65;;;0.40;99.90;;;;;;5032301;28;20073;-81
2022/12/12 07:42:58;;;;;;;21.00;9.07;;;0.30;99.90;;;;;;5015758;28;20449;-81
2022/12/12 07:45:24;;;;;;;;;;;0.30;99.90;;;;;;5033030;28;20517;-81
2022/12/12 07:47:50;;;;;;;21.60;9.38;;;0.30;99.90;;;;;;5032361;28;19917;-81
2022/12/12 07:50:16;;;;;;;18.48;9.02;;;0.30;99.90;;;;;;5031891;28;20110;-81
2022/12/12 07:52:42;;;;;;;20.17;9.18;;;0.40;99.90;;;;;;5032099;28;20377;-81
2022/12/12 07:55:08;;;;;;;21.15;9.00;;;0.30;99.90;;;;;;5031903;28;20042;-81
2022/12/12 07:57:34;;;;;;;21.30;8.85;;;0.30;99.90;;;;;;5032219;28;20041;-81
2022/12/12 08:00:00;;;;;;;18.83;8.50;;;0.30;99.90;;;;;;5029061;28;21290;-81
2022/12/12 08:02:25;;;;;;;25.27;9.82;;;0.30;99.90;;;;;;5032323;28;20673;-81
2022/12/12 08:04:51;;;;;;;20.73;9.33;;;0.90;99.90;;;;;;5032614;28;20037;-81
2022/12/12 08:07:17;;;;;;;21.13;9.43;;;0.40;99.90;;;;;;5030691;28;20045;-81
2022/12/12 08:09:43;;;;;;;20.52;9.27;;;0.40;99.90;;;;;;5031795;28;20078;-81
2022/12/12 08:12:09;;;;;;;21.23;9.23;;;0.40;99.90;;;;;;5030830;28;20068;-81
2022/12/12 08:14:36;;;;;;;19.17;8.55;;;0.40;99.90;;;;;;5031287;28;20104;-80
2022/12/12 08:17:01;;;;;;;21.08;9.65;;;0.40;99.90;;;;;;5030848;28;20459;-81
2022/12/12 08:19:27;;;;;;;20.52;9.65;;;0.40;99.90;;;;;;5031108;28;20069;-81
2022/12/12 08:21:53;;;;;;;21.23;9.37;;;0.30;99.90;;;;;;5014721;28;20410;-80
2022/12/12 08:24:18;;;;;;;22.30;8.70;;;0.40;99.90;;;;;;5031343;28;20280;-81
2022/12/12 08:26:44;;;;;;;20.13;9.50;;;1.00;99.90;;;;;;5031799;28;20053;-80
2022/12/12 08:29:10;;;;;;;20.65;8.75;;;0.30;99.90;;;;;;5030852;28;20049;-80
2022/12/12 08:31:37;;;;;;;;;;;0.60;99.90;;;;;;5031517;28;20085;-81
2022/12/12 08:34:04;;;;;;;20.57;8.87;;;-0.80;99.90;;;;;;5030964;28;19917;-81
2022/12/12 08:36:31;;;;;;;20.33;9.23;;;0.70;99.90;;;;;;5014812;28;20076;-81
2022/12/12 08:39:00;;;;;;;22.25;8.88;;;1.10;99.90;;;;;;5031424;28;20037;-81
2022/12/12 08:41:26;;;;;;;24.38;9.32;;;0.40;99.90;;;;;;5031651;28;20311;-80
2022/12/12 08:43:52;;;;;;;20.75;9.23;;;0.40;99.90;;;;;;5031522;28;20041;-81
2022/12/12 08:46:18;;;;;;;21.08;8.60;;;0.50;99.90;;;;;;5015146;28;20036;-80
2022/12/12 08:48:45;;;;;;;20.83;9.50;;;0.50;99.90;;;;;;5031487;28;20053;-80
2022/12/12 08:51:12;;;;;;;21.75;9.68;;;0.50;99.90;;;;;;5031145;28;20044;-81
2022/12/12 08:53:38;;;;;;;;;;;0.20;99.90;;;;;;5031786;28;20096;-81
2022/12/12 08:56:04;;;;;;;22.60;9.13;;;0.50;99.90;;;;;;5014669;28;20372;-81
2022/12/12 08:58:29;;;;;;;18.00;8.32;;;0.50;99.90;;;;;;5031232;28;20449;-81
2022/12/12 09:00:55;;;;;;;22.13;9.70;;;0.50;99.90;;;;;;5031566;28;20041;-82
2022/12/12 09:03:21;;;;;;;20.25;9.27;;;0.50;99.90;;;;;;5014486;28;20754;-82
2022/12/12 09:05:47;;;;;;;20.88;9.20;;;0.60;99.90;;;;;;5031083;28;20033;-81
2022/12/12 09:08:13;;;;;;;22.77;8.90;;;0.60;99.90;;;;;;5030854;28;20047;-81
2022/12/12 09:10:40;;;;;;;21.10;9.98;;;0.70;99.90;;;;;;5014535;28;20367;-81
2022/12/12 09:13:07;;;;;;;20.40;8.90;;;0.70;99.90;;;;;;5014415;28;20045;-81
2022/12/12 09:15:34;;;;;;;20.52;8.55;;;0.60;99.90;;;;;;5029050;28;20490;-83
2022/12/12 09:17:59;;;;;;;20.88;8.88;;;0.70;99.90;;;;;;5030821;28;20050;-82
2022/12/12 09:20:25;;;;;;;22.05;9.30;;;0.70;99.90;;;;;;5030632;28;20401;-82
2022/12/12 09:22:51;;;;;;;20.60;8.85;;;0.70;99.90;;;;;;5030979;28;20041;-82
2022/12/12 09:25:18;;;;;;;21.27;9.00;;;0.70;99.90;;;;;;5029947;28;20038;-82
2022/12/12 09:27:43;;;;;;;21.17;9.85;;;0.70;99.90;;;;;;5030957;28;20486;-82
2022/12/12 09:30:10;;;;;;;21.15;9.23;;;0.80;99.90;;;;;;5030002;28;20037;-81
2022/12/12 09:32:35;;;;;;;23.73;8.95;;;0.90;99.90;;;;;;5014261;28;20103;-82
2022/12/12 09:35:01;;;;;;;22.40;9.60;;;0.90;99.90;;;;;;5030775;28;20049;-81
2022/12/12 09:37:28;;;;;;;18.77;9.00;;;1.00;99.90;;;;;;5030368;28;20304;-81
2022/12/12 09:39:54;;;;;;;22.15;9.68;;;1.00;99.90;;;;;;5014011;28;20276;-81
2022/12/12 09:42:26;;;;;;;20.53;9.50;;;1.10;99.90;;;;;;5030101;28;20037;-81
2022/12/12 09:44:56;;;;;;;21.10;9.90;;;1.10;99.90;;;;;;5030290;28;20319;-81
2022/12/12 09:47:49;;;;;;;19.33;8.95;;;1.10;99.90;;;;;;5029921;28;20049;-81
2022/12/12 09:50:33;;;;;;;19.92;9.10;;;1.20;99.90;;;;;;5030059;28;20044;-81
2022/12/12 09:53:20;;;;;;;21.27;10.00;;;1.50;99.90;;;;;;5030527;28;20086;-81
2022/12/12 09:56:14;;;;;;;20.17;9.05;;;1.30;99.90;;;;;;5030325;28;20081;-82
2022/12/12 09:58:56;;;;;;;19.77;9.10;;;1.50;99.90;;;;;;5029046;28;20049;-82
2022/12/12 10:01:38;;;;;;;21.10;9.73;;;1.70;99.90;;;;;;5029891;28;20414;-82
2022/12/12 10:04:26;;;;;;;17.35;8.73;;;1.90;99.90;;;;;;5028048;28;20402;-82
2022/12/12 10:07:16;;;;;;;18.98;9.57;;;2.20;99.90;;;;;;5027915;28;20053;-82
2022/12/12 10:09:52;;;;;;;18.08;8.98;;;2.10;99.90;;;;;;5027989;28;20045;-80
2022/12/12 10:12:20;;;;;;;18.80;9.00;;;3.10;99.90;;;;;;5029307;28;20038;-80
2022/12/12 10:14:52;;;;;;;19.05;8.77;;;2.30;99.90;;;;;;5027870;28;20124;-81
2022/12/12 10:17:25;;;;;;;17.90;8.85;;;2.40;99.90;;;;;;5029272;28;20383;-81
2022/12/12 10:19:56;;;;;;;17.15;8.90;;;2.60;99.90;;;;;;5029587;28;20043;-81
2022/12/12 10:22:36;;;;;;;19.95;9.85;;;2.80;99.90;;;;;;5029070;28;20041;-81
2022/12/12 10:25:22;;;;;;;14.07;7.40;;;3.20;99.90;;;;;;5029363;28;20055;-81
2022/12/12 10:28:09;;;;;;;19.55;9.23;;;4.20;99.90;;;;;;5025875;28;20072;-80
2022/12/12 10:30:38;;;;;;;;;;;4.80;99.90;;;;;;5029378;28;20421;-80
2022/12/12 10:33:18;;;;;;;17.08;9.07;;;4.80;99.90;;;;;;5029625;28;19917;-80
2022/12/12 10:36:00;;;;;;;17.20;9.52;;;5.70;99.90;;;;;;5027258;28;20067;-80
2022/12/12 10:38:49;;;;;;;17.45;9.38;;;6.00;99.90;;;;;;5027007;28;20095;-80
2022/12/12 10:41:30;;;;;;;16.30;8.88;;;6.50;99.90;;;;;;5029130;28;20037;-80
2022/12/12 10:44:08;;;;;;;15.48;9.23;;;6.60;99.90;;;;;;5029110;28;20038;-80
2022/12/12 10:46:43;;;;;;;16.20;8.98;;;6.90;99.90;;;;;;5029086;28;20041;-80
2022/12/12 10:49:19;;;;;;;15.55;9.52;;;6.90;99.90;;;;;;5029275;28;20056;-80
2022/12/12 10:51:47;;;;;;;16.50;9.40;;;6.80;99.90;;;;;;5029201;28;20037;-81
2022/12/12 10:54:17;;;;;;;16.10;9.25;;;6.80;99.90;;;;;;5028925;28;20048;-80
2022/12/12 10:57:13;;;;;;;14.80;8.48;;;6.80;99.90;;;;;;5012573;28;20049;-81
2022/12/12 10:59:44;;;;;;;15.25;9.15;;;6.60;99.90;;;;;;5029055;28;20049;-81
2022/12/12 11:02:44;;;;;;;15.88;8.57;;;6.60;99.90;;;;;;5029529;28;20446;-81
2022/12/12 11:05:19;;;;;;;15.70;8.38;;;6.40;99.90;;;;;;5027879;28;20045;-79
2022/12/12 11:07:56;;;;;;;14.73;8.20;;;6.30;99.90;;;;;;5028879;28;20049;-80
2022/12/12 11:10:26;;;;;;;13.63;8.40;;;6.00;99.90;;;;;;5026495;28;20052;-80
2022/12/12 11:13:09;;;;;;;16.75;8.00;;;5.70;99.90;;;;;;5029375;28;20400;-81
2022/12/12 11:15:51;;;;;;;15.38;7.82;;;5.50;99.90;;;;;;5045290;28;20048;-81
2022/12/12 11:18:20;;;;;;;15.60;8.02;;;5.20;99.90;;;;;;5028757;28;20050;-81
2022/12/12 11:20:55;;;;;;;14.75;8.07;;;5.00;99.90;;;;;;5029354;28;20046;-81
2022/12/12 11:23:27;;;;;;;13.73;7.75;;;4.80;99.90;;;;;;5026618;28;20083;-81
2022/12/12 11:26:01;;;;;;;14.70;8.30;;;4.60;99.90;;;;;;5029360;28;20466;-81
2022/12/12 11:28:35;;;;;;;15.95;8.40;;;4.80;99.90;;;;;;5043591;28;20110;-81
2022/12/12 11:31:05;;;;;;;15.32;8.32;;;5.10;99.90;;;;;;5012534;28;20053;-81
2022/12/12 11:33:36;;;;;;;15.93;8.63;;;5.60;99.90;;;;;;5028805;28;20048;-81
2022/12/12 11:36:05;;;;;;;13.38;7.47;;;6.50;99.90;;;;;;5029482;28;20371;-81
2022/12/12 11:38:39;;;;;;;14.38;8.00;;;5.80;99.90;;;;;;5028612;28;20056;-81
2022/12/12 11:41:09;;;;;;;15.48;8.02;;;5.80;99.90;;;;;;5028984;28;20088;-81
2022/12/12 11:43:51;;;;;;;16.27;8.48;;;5.60;99.90;;;;;;5015632;28;20094;-81
2022/12/12 11:46:30;;;;;;;14.07;7.55;;;5.40;99.90;;;;;;5014407;28;20069;-81
2022/12/12 11:49:00;;;;;;;12.75;6.93;;;5.20;99.90;;;;;;5013510;28;20033;-80
2022/12/12 11:51:40;;;;;;;14.10;8.10;;;5.00;99.90;;;;;;5031662;28;20386;-81
2022/12/12 11:54:14;;;;;;;13.50;8.18;;;4.90;99.90;;;;;;5015947;28;20037;-81
2022/12/12 11:57:01;;;;;;;14.70;8.27;;;5.00;99.90;;;;;;5031870;28;20080;-81
2022/12/12 12:00:01;;;;;;;13.20;7.90;;;5.20;99.90;;;;;;5029659;28;20822;-81
2022/12/12 12:02:36;;;;;;;14.20;7.90;;;5.20;99.90;;;;;;5013519;28;20467;-81
2022/12/12 12:05:08;;;;;;;13.68;7.85;;;5.20;99.90;;;;;;5031982;28;20053;-80
2022/12/12 12:07:56;;;;;;;12.88;7.43;;;5.00;99.90;;;;;;5032278;28;20034;-81
2022/12/12 12:10:46;;;;;;;14.95;7.97;;;5.00;99.90;;;;;;5031468;28;20117;-81
2022/12/12 12:13:48;;;;;;;13.82;7.82;;;5.10;99.90;;;;;;5029742;28;20103;-81
2022/12/12 12:16:23;;;;;;;14.70;8.05;;;5.30;99.90;;;;;;5031991;28;20104;-80
2022/12/12 12:19:13;;;;;;;14.88;8.05;;;5.60;99.90;;;;;;5031779;28;20037;-80
2022/12/12 12:22:17;;;;;;;14.85;8.57;;;5.60;99.90;;;;;;5031553;28;20082;-80
2022/12/12 12:24:58;;;;;;;13.45;7.55;;;5.80;99.90;;;;;;5010591;28;20136;-81
2022/12/12 12:27:39;;;;;;;14.88;7.75;;;5.70;99.90;;;;;;5029584;28;20392;-81
2022/12/12 12:30:21;;;;;;;14.82;8.60;;;5.60;99.90;;;;;;5030085;28;20041;-81
2022/12/12 12:33:11;;;;;;;14.13;8.30;;;5.40;99.90;;;;;;5030044;28;20115;-81
2022/12/12 12:35:53;;;;;;;16.00;8.13;;;5.20;99.90;;;;;;5031230;28;20052;-81
2022/12/12 12:38:37;;;;;;;12.98;7.88;;;5.10;99.90;;;;;;5030967;28;20374;-81
2022/12/12 12:41:43;;;;;;;15.15;7.82;;;4.80;99.90;;;;;;5030704;28;20137;-81
2022/12/12 12:44:30;;;;;;;13.45;7.43;;;4.60;99.90;;;;;;5029274;28;20045;-81
2022/12/12 12:47:13;;;;;;;13.83;7.73;;;4.50;99.90;;;;;;5031026;28;20048;-81
2022/12/12 12:49:42;;;;;;;17.60;8.40;;;4.50;99.90;;;;;;5029296;28;20057;-82
2022/12/12 12:52:22;;;;;;;15.93;7.68;;;4.50;99.90;;;;;;5030228;28;20065;-80
2022/12/12 12:54:51;;;;;;;16.90;8.32;;;4.40;99.90;;;;;;5028415;28;20044;-82
2022/12/12 12:57:22;;;;;;;13.35;7.53;;;4.90;99.90;;;;;;5030279;28;20061;-82
2022/12/12 12:59:51;;;;;;;14.88;8.38;;;4.20;99.90;;;;;;5030212;28;20038;-81
2022/12/12 13:02:32;;;;;;;17.90;8.27;;;4.10;99.90;;;;;;5032194;28;20112;-82
2022/12/12 13:05:06;;;;;;;14.52;7.93;;;4.00;99.90;;;;;;5033413;28;20060;-81
2022/12/12 13:07:51;;;;;;;15.20;8.27;;;3.90;99.90;;;;;;5033110;28;20097;-81
2022/12/12 13:10:26;;;;;;;16.17;8.40;;;3.90;99.90;;;;;;5033343;28;20050;-81
2022/12/12 13:13:14;;;;;;;16.83;8.75;;;3.90;99.90;;;;;;5030949;28;20042;-81
2022/12/12 13:15:45;;;;;;;18.17;8.50;;;3.70;99.90;;;;;;5033836;28;20124;-81
2022/12/12 13:18:16;;;;;;;18.92;9.00;;;3.60;99.90;;;;;;5029749;28;20134;-82
2022/12/12 13:20:57;;;;;;;19.15;8.80;;;3.40;99.90;;;;;;5030508;28;20046;-82
2022/12/12 13:23:28;;;;;;;16.67;8.82;;;3.40;99.90;;;;;;5047149;28;20068;-82
2022/12/12 13:25:59;;;;;;;15.90;8.23;;;3.40;99.90;;;;;;5031126;28;20390;-81
2022/12/12 13:28:39;;;;;;;17.92;9.02;;;3.40;99.90;;;;;;5013741;28;20041;-81